Time;durP1;ratioP1;P1;durP2;ratioP2;P2;SDS_P1;SDS_P2;PMS_P1;PMS_P2;Temp;Humidity;BMP_temperature;BMP_pressure;BME280_temperature;BME280_humidity;BME280_pressure;Samples;Min_cycle;Max_cycle;Signal;HPM_P1;HPM_P2
2022/12/01 00:02:18;;;;;;;27.40;14.23;;;;;;;6.12;91.24;101214.47;4967765;28;20294;-66
2022/12/01 00:04:47;;;;;;;25.53;13.60;;;;;;;6.09;90.79;101216.97;4970887;28;20199;-66
2022/12/01 00:07:13;;;;;;;21.23;12.20;;;;;;;6.06;90.46;101217.75;4969376;28;20234;-66
2022/12/01 00:12:24;;;;;;;26.50;11.67;;;;;;;5.90;91.08;101217.88;4966535;28;20538;-66
2022/12/01 00:14:53;;;;;;;22.17;11.53;;;;;;;5.90;91.30;101221.38;4972411;28;20228;-66
2022/12/01 00:17:20;;;;;;;23.83;12.30;;;;;;;5.90;91.62;101217.88;4965459;28;20669;-66
2022/12/01 00:19:46;;;;;;;23.40;12.53;;;;;;;5.86;91.28;101219.41;4972376;28;20251;-66
2022/12/01 00:22:13;;;;;;;24.80;13.23;;;;;;;5.81;91.74;101218.31;4972496;28;20223;-66
2022/12/01 00:24:39;;;;;;;24.43;13.17;;;;;;;5.77;91.69;101224.25;4972287;28;20295;-66
2022/12/01 00:27:06;;;;;;;30.10;14.73;;;;;;;5.84;91.58;101222.81;4969883;28;20290;-66
2022/12/01 00:29:32;;;;;;;23.23;12.07;;;;;;;5.85;91.78;101221.97;4972717;28;20208;-66
2022/12/01 00:31:58;;;;;;;25.13;13.03;;;;;;;5.81;91.88;101223.56;4970161;28;20688;-66
2022/12/01 00:34:26;;;;;;;24.40;13.27;;;;;;;5.82;91.75;101222.75;4971809;28;20203;-66
2022/12/01 00:36:53;;;;;;;26.43;13.33;;;;;;;5.85;91.30;101228.13;4971627;28;20203;-66
2022/12/01 00:39:19;;;;;;;22.53;12.27;;;;;;;5.84;90.73;101234.22;4972598;28;20290;-66
2022/12/01 00:41:46;;;;;;;22.90;13.13;;;;;;;5.82;90.49;101229.72;4970025;28;20218;-66
2022/12/01 00:44:12;;;;;;;25.00;13.60;;;;;;;5.78;90.96;101225.16;4971255;28;20252;-66
2022/12/01 00:46:38;;;;;;;24.50;13.13;;;;;;;5.76;91.24;101227.72;4971943;28;20304;-66
2022/12/01 00:49:05;;;;;;;25.63;13.37;;;;;;;5.79;91.22;101234.84;4972644;28;20252;-66
2022/12/01 00:51:31;;;;;;;25.50;12.87;;;;;;;5.78;91.20;101228.69;4970333;28;20285;-66
2022/12/01 00:53:58;;;;;;;30.50;13.63;;;;;;;5.78;91.75;101228.69;4972043;28;20197;-66
2022/12/01 00:56:24;;;;;;;25.53;13.77;;;;;;;5.87;90.88;101230.84;4970774;28;20228;-66
2022/12/01 00:58:50;;;;;;;29.63;14.23;;;;;;;5.84;90.68;101238.59;4966787;28;20229;-66
2022/12/01 01:01:17;;;;;;;26.43;13.67;;;;;;;5.93;90.42;101225.88;4969999;28;20730;-66
2022/12/01 01:03:43;;;;;;;28.73;13.10;;;;;;;5.83;90.53;101242.94;4972400;28;20250;-66
2022/12/01 01:06:11;;;;;;;27.60;13.87;;;;;;;5.85;90.82;101245.63;4971273;28;20373;-66
2022/12/01 01:08:38;;;;;;;32.13;14.77;;;;;;;5.79;91.16;101242.72;4967152;28;20293;-66
2022/12/01 01:11:06;;;;;;;29.60;14.03;;;;;;;5.74;91.38;101249.50;4957118;28;20732;-66
2022/12/01 01:13:33;;;;;;;27.67;13.60;;;;;;;5.73;91.16;101238.09;4971201;28;20218;-66
2022/12/01 01:16:12;;;;;;;29.27;13.27;;;;;;;5.73;91.01;101242.44;4971963;28;20285;-66
2022/12/01 01:18:38;;;;;;;26.20;13.40;;;;;;;5.68;91.32;101246.59;4970463;28;20203;-66
2022/12/01 01:21:07;;;;;;;27.57;13.20;;;;;;;5.58;91.59;101254.03;4971794;28;20642;-66
2022/12/01 01:23:34;;;;;;;25.90;12.90;;;;;;;5.52;91.74;101255.47;4970854;28;20658;-66
2022/12/01 01:26:05;;;;;;;23.90;12.70;;;;;;;5.51;91.84;101262.44;4970116;28;20199;-66
2022/12/01 01:28:32;;;;;;;26.43;12.17;;;;;;;5.41;90.98;101265.47;4966851;28;20592;-66
2022/12/01 01:30:59;;;;;;;24.97;11.97;;;;;;;5.35;90.76;101273.06;4970299;28;20302;-66
2022/12/01 01:33:25;;;;;;;25.40;11.30;;;;;;;5.22;90.61;101266.31;4968826;28;20202;-66
2022/12/01 01:35:51;;;;;;;23.10;12.00;;;;;;;5.15;90.95;101276.44;4968805;28;20285;-66
2022/12/01 01:38:18;;;;;;;25.23;12.53;;;;;;;5.08;90.85;101279.56;4970486;28;20198;-66
2022/12/01 01:40:45;;;;;;;31.30;12.83;;;;;;;5.06;90.71;101273.34;4971284;28;20666;-66
2022/12/01 01:43:17;;;;;;;24.60;12.03;;;;;;;5.02;90.97;101283.69;4966869;28;20696;-66
2022/12/01 01:45:43;;;;;;;24.57;12.80;;;;;;;5.02;90.58;101283.69;4970539;28;20256;-66
2022/12/01 01:48:12;;;;;;;24.43;12.13;;;;;;;4.98;90.63;101287.00;4969812;28;20293;-66
2022/12/01 01:50:39;;;;;;;27.97;13.53;;;;;;;4.93;91.00;101282.34;4971210;28;20261;-66
2022/12/01 01:53:09;;;;;;;25.80;12.37;;;;;;;4.90;90.30;101284.81;4969450;28;20240;-66
2022/12/01 01:55:36;;;;;;;30.57;13.50;;;;;;;4.94;89.51;101287.69;4971428;28;20290;-66
2022/12/01 01:58:06;;;;;;;26.90;13.80;;;;;;;4.88;89.41;101283.84;4969869;28;20293;-66
2022/12/01 02:00:33;;;;;;;28.47;12.93;;;;;;;4.82;89.38;101297.56;4968733;28;20225;-66
2022/12/01 02:02:59;;;;;;;28.97;12.63;;;;;;;4.78;89.22;101298.19;4968190;28;20703;-66
2022/12/01 02:05:29;;;;;;;30.93;13.90;;;;;;;4.86;88.87;101298.63;4971469;28;20281;-66
2022/12/01 02:07:58;;;;;;;28.73;13.67;;;;;;;4.70;88.70;101289.03;4970453;28;20237;-66
2022/12/01 02:10:48;;;;;;;29.40;12.63;;;;;;;4.63;89.10;101292.19;4966953;28;20200;-66
2022/12/01 02:13:37;;;;;;;31.20;13.50;;;;;;;4.59;89.69;101288.50;4969104;28;20197;-66
2022/12/01 02:16:21;;;;;;;34.17;13.30;;;;;;;4.59;89.83;101283.25;4954375;28;20395;-66
2022/12/01 02:18:58;;;;;;;31.80;14.80;;;;;;;4.54;89.97;101284.75;4966530;28;20416;-66
2022/12/01 02:21:52;;;;;;;31.90;13.33;;;;;;;4.53;90.04;101292.53;4968163;28;20767;-66
2022/12/01 02:24:28;;;;;;;31.53;13.77;;;;;;;4.47;90.64;101287.88;4970343;28;20213;-66
2022/12/01 02:27:06;;;;;;;43.00;14.43;;;;;;;4.48;90.71;101291.41;4965571;28;20295;-66
2022/12/01 02:30:03;;;;;;;33.73;14.43;;;;;;;4.48;91.26;101294.91;4968847;28;20218;-66
2022/12/01 02:32:40;;;;;;;34.43;14.60;;;;;;;4.52;90.56;101294.25;4969665;28;20280;-66
2022/12/01 02:35:16;;;;;;;35.57;15.03;;;;;;;4.56;90.55;101290.06;4968713;28;20201;-65
2022/12/01 02:37:58;;;;;;;35.47;14.80;;;;;;;4.56;90.67;101290.97;4964254;28;20209;-66
2022/12/01 02:40:30;;;;;;;35.00;14.37;;;;;;;4.58;90.72;101288.44;4965457;28;20710;-66
2022/12/01 02:43:03;;;;;;;33.03;14.67;;;;;;;4.58;90.49;101285.81;4968989;28;20221;-66
2022/12/01 02:45:47;;;;;;;34.63;15.43;;;;;;;4.53;90.55;101272.44;4963224;28;20476;-66
2022/12/01 02:48:21;;;;;;;29.90;13.77;;;;;;;4.53;90.33;101269.81;4963004;28;20281;-66
2022/12/01 02:50:49;;;;;;;31.47;14.43;;;;;;;4.63;89.83;101284.31;4959177;28;20209;-66
2022/12/01 02:53:18;;;;;;;36.43;15.13;;;;;;;4.63;89.82;101282.59;4969291;28;20248;-66
2022/12/01 02:55:52;;;;;;;32.93;15.30;;;;;;;4.82;88.55;101294.94;4968273;28;20234;-66
2022/12/01 02:58:19;;;;;;;30.20;15.27;;;;;;;4.73;88.46;101286.56;4965501;28;20300;-66
2022/12/01 03:01:06;;;;;;;30.63;14.33;;;;;;;4.69;88.81;101288.16;4966918;28;20248;-66
2022/12/01 03:03:52;;;;;;;34.00;14.80;;;;;;;4.76;88.66;101289.34;4970568;28;20316;-66
2022/12/01 03:06:35;;;;;;;30.73;14.60;;;;;;;4.74;88.15;101301.50;4960009;28;22152;-66
2022/12/01 03:09:25;;;;;;;31.00;14.23;;;;;;;4.69;88.38;101300.38;4960280;28;20405;-66
2022/12/01 03:12:22;;;;;;;34.93;15.40;;;;;;;4.71;88.02;101291.75;4967226;28;20214;-65
2022/12/01 03:15:02;;;;;;;29.93;14.00;;;;;;;4.69;88.35;101293.38;4963084;28;20288;-66
2022/12/01 03:17:37;;;;;;;31.37;14.40;;;;;;;4.80;87.89;101293.94;4959450;28;20205;-66
2022/12/01 03:20:11;;;;;;;31.17;14.17;;;;;;;4.73;88.22;101292.72;4967267;28;20729;-66
2022/12/01 03:22:49;;;;;;;35.07;15.53;;;;;;;4.77;88.01;101291.16;4966244;28;20300;-66
2022/12/01 03:25:18;;;;;;;33.13;15.50;;;;;;;4.78;87.16;101287.69;4963327;28;20205;-66
2022/12/01 03:27:47;;;;;;;30.73;14.03;;;;;;;4.70;87.30;101289.03;4959502;28;20285;-66
2022/12/01 03:30:36;;;;;;;29.73;13.93;;;;;;;4.83;87.12;101294.13;4962200;28;20201;-66
2022/12/01 03:33:08;;;;;;;33.57;15.70;;;;;;;4.76;87.06;101297.22;4959765;28;20229;-66
2022/12/01 03:35:44;;;;;;;28.77;14.27;;;;;;;4.77;86.87;101282.38;4967304;28;20193;-66
2022/12/01 03:38:20;;;;;;;32.13;14.33;;;;;;;4.83;86.30;101280.09;4963655;28;20708;-66
2022/12/01 03:40:50;;;;;;;33.20;15.30;;;;;;;4.76;86.47;101291.06;4968279;28;20292;-66
2022/12/01 03:43:24;;;;;;;35.27;15.37;;;;;;;4.69;86.33;101295.13;4969577;28;20222;-66
2022/12/01 03:46:00;;;;;;;28.50;14.13;;;;;;;4.71;86.45;101293.47;4962940;28;20256;-66
2022/12/01 03:48:27;;;;;;;35.87;15.33;;;;;;;4.70;86.47;101291.66;4963213;28;20676;-65
2022/12/01 03:51:12;;;;;;;29.97;14.67;;;;;;;4.65;86.42;101294.06;4966782;28;20204;-66
2022/12/01 03:53:59;;;;;;;30.10;15.30;;;;;;;4.60;86.97;101290.31;4967488;28;20189;-66
2022/12/01 03:56:31;;;;;;;34.23;15.47;;;;;;;4.57;87.32;101284.91;4961525;28;20288;-66
2022/12/01 03:59:01;;;;;;;34.37;15.83;;;;;;;4.59;87.13;101287.59;4963480;28;20252;-66
2022/12/01 04:01:32;;;;;;;34.77;16.03;;;;;;;4.69;86.70;101282.00;4964630;28;20575;-66
2022/12/01 04:04:06;;;;;;;34.80;15.83;;;;;;;4.61;87.33;101280.72;4964886;28;20699;-66
2022/12/01 04:06:33;;;;;;;33.50;16.40;;;;;;;4.57;87.20;101287.53;4961977;28;20288;-66
2022/12/01 04:08:59;;;;;;;30.83;14.87;;;;;;;4.64;87.60;101291.34;4959653;28;20284;-66
2022/12/01 04:14:10;;;;;;;33.33;15.63;;;;;;;4.71;87.33;101293.47;4968067;28;20201;-66
2022/12/01 04:16:36;;;;;;;34.30;15.57;;;;;;;4.68;87.55;101298.56;4964263;28;20827;-66
2022/12/01 04:19:03;;;;;;;31.67;15.77;;;;;;;4.70;87.58;101297.81;4964835;28;20410;-66
2022/12/01 04:21:29;;;;;;;39.70;15.87;;;;;;;4.64;87.86;101300.13;4968889;28;20304;-66
2022/12/01 04:24:01;;;;;;;36.63;15.20;;;;;;;4.71;87.67;101291.75;4966160;28;20225;-66
2022/12/01 04:26:34;;;;;;;36.53;14.37;;;;;;;4.66;87.85;101310.69;4959889;28;20761;-66
2022/12/01 04:29:03;;;;;;;39.47;16.40;;;;;;;4.57;88.05;101305.88;4964356;28;20260;-66
2022/12/01 04:31:30;;;;;;;36.60;16.07;;;;;;;4.60;88.41;101306.03;4968391;28;20236;-66
2022/12/01 04:33:57;;;;;;;40.97;16.40;;;;;;;4.55;88.73;101309.25;4972248;28;20200;-66
2022/12/01 04:36:25;;;;;;;35.10;16.17;;;;;;;4.54;88.57;101310.06;4968802;28;20289;-66
2022/12/01 04:38:51;;;;;;;35.27;16.37;;;;;;;4.54;88.76;101312.69;4962741;28;20650;-66
2022/12/01 04:41:18;;;;;;;37.33;17.43;;;;;;;4.51;88.82;101309.91;4969079;28;20230;-66
2022/12/01 04:43:44;;;;;;;40.13;16.87;;;;;;;4.48;89.31;101307.13;4970559;28;20308;-66
2022/12/01 04:46:11;;;;;;;38.13;17.47;;;;;;;4.51;89.27;101299.44;4962559;28;20294;-66
2022/12/01 04:48:40;;;;;;;36.20;17.30;;;;;;;4.51;88.65;101305.56;4965109;28;20213;-66
2022/12/01 04:51:07;;;;;;;37.57;17.50;;;;;;;4.49;88.95;101298.44;4972069;28;20297;-66
2022/12/01 04:53:35;;;;;;;41.40;17.97;;;;;;;4.53;88.67;101296.06;4972015;28;20292;-66
2022/12/01 04:56:02;;;;;;;42.00;17.83;;;;;;;4.49;88.95;101301.06;4965964;28;20288;-66
2022/12/01 04:58:30;;;;;;;40.13;17.30;;;;;;;4.47;89.15;101298.38;4968016;28;20661;-66
2022/12/01 05:01:04;;;;;;;36.70;16.60;;;;;;;4.47;89.13;101300.09;4963517;28;20197;-66
2022/12/01 05:03:34;;;;;;;37.57;16.67;;;;;;;4.42;89.15;101291.97;4970733;28;20235;-66
2022/12/01 05:06:07;;;;;;;38.87;17.17;;;;;;;4.40;88.95;101294.53;4971458;28;20726;-66
2022/12/01 05:08:33;;;;;;;40.37;16.80;;;;;;;4.37;88.97;101298.69;4969112;28;20588;-66
2022/12/01 05:11:00;;;;;;;39.63;17.33;;;;;;;4.40;88.92;101302.41;4969632;28;20249;-65
2022/12/01 05:13:27;;;;;;;41.20;17.67;;;;;;;4.38;88.95;101303.09;4963586;28;20194;-65
2022/12/01 05:16:02;;;;;;;36.97;17.27;;;;;;;4.31;89.08;101301.88;4961397;28;20667;-65
2022/12/01 05:18:28;;;;;;;40.57;17.80;;;;;;;4.32;89.48;101303.69;4971767;28;20193;-65
2022/12/01 05:20:57;;;;;;;38.30;17.50;;;;;;;4.30;89.30;101309.66;4968524;28;20241;-65
2022/12/01 05:23:25;;;;;;;37.77;16.83;;;;;;;4.30;89.60;101309.66;4970155;28;20204;-64
2022/12/01 05:25:53;;;;;;;41.07;19.07;;;;;;;4.25;89.46;101305.91;4969663;28;20674;-66
2022/12/01 05:28:20;;;;;;;40.77;18.10;;;;;;;4.21;89.95;101302.22;4959683;28;20288;-66
2022/12/01 05:30:48;;;;;;;42.33;17.47;;;;;;;4.25;89.99;101301.56;4966947;28;20280;-65
2022/12/01 05:33:16;;;;;;;41.97;17.83;;;;;;;4.23;89.92;101307.53;4963207;28;20194;-66
2022/12/01 05:35:43;;;;;;;41.90;17.33;;;;;;;4.18;90.17;101299.44;4969879;28;20280;-66
2022/12/01 05:38:09;;;;;;;41.63;17.27;;;;;;;4.17;90.42;101309.84;4968177;28;20202;-65
2022/12/01 05:40:36;;;;;;;40.53;16.87;;;;;;;4.15;90.62;101304.53;4971211;28;20197;-65
2022/12/01 05:43:03;;;;;;;38.33;18.07;;;;;;;4.17;90.89;101316.00;4969261;28;20221;-65
2022/12/01 05:45:30;;;;;;;40.60;18.30;;;;;;;4.18;91.02;101314.25;4971196;28;20218;-65
2022/12/01 05:47:57;;;;;;;41.53;18.70;;;;;;;4.19;90.94;101311.72;4970504;28;20197;-66
2022/12/01 05:50:25;;;;;;;39.63;17.53;;;;;;;4.26;90.67;101308.59;4970483;28;20293;-63
2022/12/01 05:52:51;;;;;;;37.17;17.57;;;;;;;4.22;91.07;101311.88;4968822;28;20240;-66
2022/12/01 05:55:18;;;;;;;38.20;17.97;;;;;;;4.27;90.95;101312.13;4969649;28;20295;-64
2022/12/01 05:57:44;;;;;;;38.67;18.60;;;;;;;4.22;90.89;101308.38;4968704;28;20404;-65
2022/12/01 06:00:12;;;;;;;37.57;17.17;;;;;;;4.21;90.79;101306.56;4967943;28;20206;-64
2022/12/01 06:02:40;;;;;;;46.03;18.47;;;;;;;4.21;90.88;101314.44;4967457;28;20333;-65
2022/12/01 06:05:07;;;;;;;44.33;18.53;;;;;;;4.19;91.08;101308.22;4966868;28;20221;-64
2022/12/01 06:07:34;;;;;;;44.60;18.80;;;;;;;4.21;91.17;101320.56;4961145;28;20745;-64
2022/12/01 06:10:01;;;;;;;38.40;17.37;;;;;;;4.21;90.94;101320.56;4967976;28;20208;-65
2022/12/01 06:12:27;;;;;;;41.83;18.33;;;;;;;4.19;91.17;101324.84;4963533;28;20220;-64
2022/12/01 06:14:54;;;;;;;41.23;17.20;;;;;;;4.17;90.89;101317.72;4967318;28;20205;-65
2022/12/01 06:17:20;;;;;;;39.80;16.40;;;;;;;4.07;90.38;101322.47;4962936;28;20208;-65
2022/12/01 06:19:47;;;;;;;41.97;17.33;;;;;;;3.99;90.72;101325.47;4968933;28;20245;-65
2022/12/01 06:22:13;;;;;;;41.90;16.73;;;;;;;3.98;90.14;101324.56;4961040;28;20275;-65
2022/12/01 06:24:40;;;;;;;39.03;17.47;;;;;;;3.90;90.54;101317.09;4960695;28;20313;-66
2022/12/01 06:27:06;;;;;;;35.90;16.17;;;;;;;3.88;90.85;101330.13;4964967;28;20320;-65
2022/12/01 06:29:32;;;;;;;39.50;17.30;;;;;;;3.83;90.61;101328.06;4967393;28;20293;-65
2022/12/01 06:32:06;;;;;;;36.83;16.70;;;;;;;3.83;90.42;101323.72;4965016;28;20252;-65
2022/12/01 06:34:32;;;;;;;38.13;16.93;;;;;;;3.86;90.22;101333.47;4970172;28;20190;-65
2022/12/01 06:36:58;;;;;;;39.43;16.20;;;;;;;3.82;90.03;101318.41;4970539;28;20282;-65
2022/12/01 06:39:25;;;;;;;34.63;16.07;;;;;;;3.89;89.49;101324.06;4967942;28;20209;-66
2022/12/01 06:41:51;;;;;;;36.77;17.87;;;;;;;3.84;89.78;101330.78;4960260;28;20284;-64
2022/12/01 06:44:18;;;;;;;37.07;17.17;;;;;;;3.84;89.91;101332.50;4966549;28;20257;-64
2022/12/01 06:46:44;;;;;;;39.73;19.50;;;;;;;3.86;89.96;101334.38;4964992;28;20200;-65
2022/12/01 06:49:11;;;;;;;46.23;19.13;;;;;;;3.88;90.29;101337.06;4965926;28;20205;-65
2022/12/01 06:51:38;;;;;;;42.70;18.10;;;;;;;3.86;90.01;101331.75;4963719;28;20651;-64
2022/12/01 06:54:04;;;;;;;40.97;18.33;;;;;;;3.89;89.67;101341.50;4947577;28;20289;-65
2022/12/01 06:56:31;;;;;;;43.00;19.60;;;;;;;3.87;89.60;101341.41;4967557;28;20193;-64
2022/12/01 06:58:57;;;;;;;43.63;19.03;;;;;;;3.92;89.63;101345.19;4966268;28;20403;-65
2022/12/01 07:01:24;;;;;;;37.73;16.87;;;;;;;3.92;89.35;101350.44;4961132;28;20229;-64
2022/12/01 07:03:51;;;;;;;39.10;17.53;;;;;;;3.92;89.20;101350.44;4964740;28;20225;-65
2022/12/01 07:06:17;;;;;;;41.00;17.13;;;;;;;4.06;88.30;101354.72;4957588;28;20592;-65
2022/12/01 07:08:44;;;;;;;41.83;17.83;;;;;;;3.97;88.65;101353.31;4965225;28;20781;-65
2022/12/01 07:11:13;;;;;;;37.93;16.77;;;;;;;3.96;88.31;101362.88;4964361;28;20221;-63
2022/12/01 07:13:40;;;;;;;39.50;18.70;;;;;;;3.89;89.03;101365.09;4968165;28;20284;-65
2022/12/01 07:16:08;;;;;;;39.43;18.67;;;;;;;3.86;89.01;101368.44;4965159;28;20704;-64
2022/12/01 07:18:35;;;;;;;46.60;17.43;;;;;;;3.82;89.48;101362.94;4964328;28;20669;-64
2022/12/01 07:21:04;;;;;;;40.77;17.67;;;;;;;3.86;89.62;101378.00;4968972;28;20572;-65
2022/12/01 07:23:31;;;;;;;40.67;18.37;;;;;;;3.88;89.75;101376.38;4965480;28;20201;-64
2022/12/01 07:26:12;;;;;;;48.87;19.07;;;;;;;3.91;89.60;101380.06;4965763;28;20245;-62
2022/12/01 07:28:39;;;;;;;37.03;16.60;;;;;;;3.94;89.47;101382.88;4966221;28;20193;-64
2022/12/01 07:31:17;;;;;;;42.50;18.23;;;;;;;3.87;89.83;101380.72;4968583;28;20260;-64
2022/12/01 07:33:44;;;;;;;45.40;18.63;;;;;;;3.91;90.00;101384.41;4966659;28;20236;-64
2022/12/01 07:36:11;;;;;;;43.63;18.47;;;;;;;3.99;89.37;101384.00;4965815;28;20225;-64
2022/12/01 07:38:38;;;;;;;40.70;18.37;;;;;;;3.98;90.04;101382.22;4965656;28;20692;-65
2022/12/01 07:41:13;;;;;;;38.83;18.27;;;;;;;3.98;90.06;101390.06;4964978;28;20469;-65
2022/12/01 07:43:41;;;;;;;36.97;18.87;;;;;;;3.96;90.28;101391.72;4960969;28;20205;-65
2022/12/01 07:46:08;;;;;;;41.53;17.90;;;;;;;4.01;89.84;101387.66;4962607;28;20226;-64
2022/12/01 07:48:36;;;;;;;41.83;18.53;;;;;;;4.18;89.24;101383.31;4962824;28;20263;-64
2022/12/01 07:51:04;;;;;;;50.93;20.23;;;;;;;4.16;89.20;101384.06;4961977;28;20209;-65
2022/12/01 07:53:31;;;;;;;42.67;18.33;;;;;;;4.12;89.52;101383.00;4963710;28;20194;-64
2022/12/01 07:55:58;;;;;;;42.60;18.50;;;;;;;4.15;89.81;101391.03;4961101;28;20302;-64
2022/12/01 07:58:31;;;;;;;46.67;20.37;;;;;;;4.24;89.56;101395.88;4964914;28;20212;-65
2022/12/01 08:01:03;;;;;;;43.57;19.40;;;;;;;4.24;89.06;101393.25;4961480;28;20677;-64
2022/12/01 08:03:30;;;;;;;38.27;19.13;;;;;;;4.28;89.04;101400.47;4962398;28;20228;-65
2022/12/01 08:05:57;;;;;;;35.73;17.13;;;;;;;4.43;87.38;101396.06;4966383;28;20228;-64
2022/12/01 08:08:24;;;;;;;37.17;17.27;;;;;;;4.39;86.93;101399.31;4962217;28;20198;-65
2022/12/01 08:10:52;;;;;;;46.73;18.40;;;;;;;4.35;87.04;101398.25;4966305;28;20554;-66
2022/12/01 08:13:19;;;;;;;39.60;19.00;;;;;;;4.42;87.05;101398.59;4967692;28;20289;-65
2022/12/01 08:15:46;;;;;;;37.83;17.20;;;;;;;4.48;87.39;101405.09;4966792;28;20712;-65
2022/12/01 08:18:12;;;;;;;37.53;16.60;;;;;;;4.41;87.03;101405.56;4964257;28;20244;-65
2022/12/01 08:20:38;;;;;;;36.93;15.63;;;;;;;4.37;87.23;101403.56;4967231;28;20280;-65
2022/12/01 08:23:06;;;;;;;35.70;16.73;;;;;;;4.37;87.16;101399.22;4964912;28;20319;-64
2022/12/01 08:25:33;;;;;;;32.23;14.53;;;;;;;4.29;86.98;101407.50;4967792;28;20213;-65
2022/12/01 08:28:00;;;;;;;32.60;14.97;;;;;;;4.29;86.34;101405.78;4972199;28;20202;-65
2022/12/01 08:30:27;;;;;;;32.33;13.63;;;;;;;4.34;84.62;101414.78;4967557;28;20284;-64
2022/12/01 08:32:55;;;;;;;28.43;13.57;;;;;;;4.25;85.51;101418.66;4965812;28;20226;-65
2022/12/01 08:35:23;;;;;;;30.20;13.43;;;;;;;4.23;85.25;101417.66;4965860;28;20276;-65
2022/12/01 08:37:53;;;;;;;33.53;13.27;;;;;;;4.25;84.44;101418.66;4967853;28;20292;-64
2022/12/01 08:40:20;;;;;;;35.90;14.60;;;;;;;4.09;85.09;101422.16;4963975;28;20197;-65
2022/12/01 08:42:47;;;;;;;34.53;14.17;;;;;;;4.08;84.98;101429.09;4966652;28;20289;-65
2022/12/01 08:45:13;;;;;;;25.53;12.40;;;;;;;4.09;84.62;101428.28;4966485;28;20225;-66
2022/12/01 08:47:39;;;;;;;29.87;13.53;;;;;;;4.05;85.00;101434.19;4966603;28;20196;-64
2022/12/01 08:50:06;;;;;;;29.90;14.57;;;;;;;4.02;85.30;101422.63;4968046;28;20291;-66
2022/12/01 08:52:34;;;;;;;28.67;13.23;;;;;;;4.03;84.79;101427.06;4967624;28;20304;-64
2022/12/01 08:55:00;;;;;;;30.63;13.73;;;;;;;4.09;84.70;101428.28;4964928;28;20204;-66
2022/12/01 08:57:30;;;;;;;28.90;13.10;;;;;;;4.18;83.76;101427.00;4969767;28;20197;-66
2022/12/01 08:59:56;;;;;;;27.60;12.40;;;;;;;4.05;83.50;101431.56;4971773;28;20229;-65
2022/12/01 09:02:23;;;;;;;25.83;12.53;;;;;;;4.11;83.38;101428.38;4960055;28;20234;-65
2022/12/01 09:04:50;;;;;;;26.53;12.67;;;;;;;4.22;82.13;101434.22;4952963;28;20221;-65
2022/12/01 09:07:18;;;;;;;28.37;12.97;;;;;;;4.18;82.78;101432.25;4953201;28;20202;-65
2022/12/01 09:09:51;;;;;;;26.37;12.47;;;;;;;4.23;81.74;101434.28;4954448;28;20197;-66
2022/12/01 09:12:18;;;;;;;25.73;12.50;;;;;;;4.21;81.02;101435.03;4952809;28;20686;-66
2022/12/01 09:14:47;;;;;;;25.90;12.23;;;;;;;4.20;82.13;101436.75;4951711;28;20198;-66
2022/12/01 09:17:15;;;;;;;24.80;12.87;;;;;;;4.18;81.68;101441.00;4952146;28;20627;-65
2022/12/01 09:19:42;;;;;;;24.47;12.87;;;;;;;4.25;81.50;101439.63;4952512;28;20249;-65
2022/12/01 09:22:10;;;;;;;27.07;13.00;;;;;;;4.19;82.15;101436.66;4955666;28;20303;-66
2022/12/01 09:24:37;;;;;;;28.07;13.70;;;;;;;4.25;81.51;101432.66;4952399;28;20716;-66
2022/12/01 09:27:04;;;;;;;24.63;13.23;;;;;;;4.28;82.27;101442.41;4951954;28;20233;-66
2022/12/01 09:29:31;;;;;;;27.53;13.17;;;;;;;4.28;81.61;101432.81;4952206;28;20201;-68
2022/12/01 09:31:59;;;;;;;29.80;13.07;;;;;;;4.35;80.96;101429.72;4951733;28;20226;-65
2022/12/01 09:34:27;;;;;;;25.50;13.50;;;;;;;4.37;80.96;101435.03;4952109;28;20202;-65
2022/12/01 09:36:56;;;;;;;30.73;13.13;;;;;;;4.48;80.19;101440.91;4951130;28;20683;-66
2022/12/01 09:39:23;;;;;;;24.10;12.37;;;;;;;4.54;79.52;101433.34;4948922;28;21571;-65
2022/12/01 09:41:54;;;;;;;33.03;13.00;;;;;;;4.60;79.37;101434.59;4952405;28;20307;-66
2022/12/01 09:44:34;;;;;;;29.17;13.27;;;;;;;4.65;78.95;101433.09;4953274;28;20288;-65
2022/12/01 09:47:17;;;;;;;26.40;12.43;;;;;;;4.75;78.42;101428.34;4952106;28;20222;-65
2022/12/01 09:50:02;;;;;;;25.23;12.60;;;;;;;4.77;78.28;101418.81;4952724;28;20662;-66
2022/12/01 09:52:38;;;;;;;28.80;13.10;;;;;;;4.86;78.40;101412.38;4949236;28;20218;-66
2022/12/01 09:55:11;;;;;;;26.60;12.63;;;;;;;4.99;76.86;101412.19;4949065;28;20288;-66
2022/12/01 09:57:39;;;;;;;25.77;12.70;;;;;;;4.96;76.63;101411.13;4951511;28;20289;-65
2022/12/01 10:00:14;;;;;;;24.17;13.07;;;;;;;4.92;77.30;101410.06;4951030;28;20300;-66
2022/12/01 10:02:51;;;;;;;25.13;12.50;;;;;;;4.90;77.38;101395.97;4964752;28;20275;-65
2022/12/01 10:05:19;;;;;;;25.03;12.80;;;;;;;5.06;76.36;101408.13;4971436;28;20276;-66
2022/12/01 10:07:55;;;;;;;27.40;13.70;;;;;;;5.06;77.90;101405.50;4970549;28;20212;-66
2022/12/01 10:10:33;;;;;;;23.70;12.03;;;;;;;5.16;77.63;101404.25;4971479;28;20197;-67
2022/12/01 10:12:59;;;;;;;24.73;13.00;;;;;;;5.20;77.91;101403.59;4969678;28;20221;-67
2022/12/01 10:15:45;;;;;;;26.70;12.93;;;;;;;5.39;76.15;101400.19;4971035;28;20309;-66
2022/12/01 10:18:19;;;;;;;27.70;12.97;;;;;;;5.35;76.08;101392.16;4967483;28;20571;-66
2022/12/01 10:21:10;;;;;;;26.33;13.23;;;;;;;5.55;75.36;101390.50;4959130;28;20209;-65
2022/12/01 10:23:55;;;;;;;25.50;13.37;;;;;;;5.68;75.05;101392.03;4966034;28;20297;-65
2022/12/01 10:26:48;;;;;;;24.13;12.23;;;;;;;5.84;73.54;101383.16;4968291;28;20294;-65
2022/12/01 10:29:41;;;;;;;27.77;13.40;;;;;;;5.82;74.74;101384.81;4965540;28;20254;-64
2022/12/01 10:32:16;;;;;;;26.67;13.57;;;;;;;5.86;74.36;101374.50;4966453;28;20636;-64
2022/12/01 10:34:45;;;;;;;27.17;12.17;;;;;;;5.92;74.23;101379.19;4963682;28;20252;-63
2022/12/01 10:37:17;;;;;;;23.60;12.57;;;;;;;6.00;74.39;101376.91;4966898;28;20212;-64
2022/12/01 10:39:47;;;;;;;25.23;13.23;;;;;;;5.96;74.14;101373.25;4968036;28;20205;-65
2022/12/01 10:42:38;;;;;;;26.03;13.47;;;;;;;5.98;74.79;101379.47;4968559;28;20230;-64
2022/12/01 10:45:13;;;;;;;29.20;13.93;;;;;;;5.99;73.05;101381.28;4967003;28;20750;-65
2022/12/01 10:48:14;;;;;;;25.60;12.90;;;;;;;5.82;73.06;101354.16;4969012;28;20628;-65
2022/12/01 10:50:46;;;;;;;24.53;13.07;;;;;;;5.86;73.98;101371.88;4967795;28;20717;-65
2022/12/01 10:53:21;;;;;;;24.90;12.67;;;;;;;5.84;74.23;101363.03;4968858;28;20227;-68
2022/12/01 10:56:02;;;;;;;24.40;12.03;;;;;;;5.75;74.68;101359.97;4966817;28;20196;-63
2022/12/01 10:58:32;;;;;;;28.97;14.10;;;;;;;5.69;74.06;101356.13;4965277;28;20346;-62
2022/12/01 11:01:04;;;;;;;25.10;12.53;;;;;;;5.66;74.93;101367.41;4969643;28;20218;-63
2022/12/01 11:03:33;;;;;;;23.57;12.30;;;;;;;5.71;74.03;101365.00;4968783;28;20198;-63
2022/12/01 11:06:04;;;;;;;25.43;11.67;;;;;;;5.71;71.59;101365.00;4968116;28;20221;-62
2022/12/01 11:08:37;;;;;;;25.27;12.67;;;;;;;5.71;71.94;101365.91;4965615;28;20202;-63
2022/12/01 11:11:04;;;;;;;22.90;11.60;;;;;;;5.72;72.11;101372.97;4968175;28;20286;-64
2022/12/01 11:13:34;;;;;;;23.90;12.43;;;;;;;5.70;71.79;101366.72;4968399;28;20253;-64
2022/12/01 11:16:04;;;;;;;23.70;12.47;;;;;;;5.73;71.45;101356.34;4969224;28;20193;-63
2022/12/01 11:18:36;;;;;;;23.73;12.67;;;;;;;5.71;71.73;101355.38;4962963;28;20558;-63
2022/12/01 11:21:09;;;;;;;30.60;13.10;;;;;;;5.60;72.02;101357.50;4967689;28;20209;-64
2022/12/01 11:23:49;;;;;;;24.43;12.20;;;;;;;5.67;72.29;101342.94;4964856;28;20202;-64
2022/12/01 11:26:24;;;;;;;27.30;12.43;;;;;;;5.70;72.42;101350.97;4967249;28;20223;-65
2022/12/01 11:28:52;;;;;;;22.33;11.47;;;;;;;5.73;72.82;101348.47;4968672;28;20249;-65
2022/12/01 11:31:20;;;;;;;24.80;12.30;;;;;;;5.81;72.15;101346.22;4969219;28;20309;-65
2022/12/01 11:33:52;;;;;;;22.20;11.83;;;;;;;5.79;71.24;101350.50;4969264;28;20253;-65
2022/12/01 11:36:41;;;;;;;24.40;11.80;;;;;;;5.84;70.18;101343.72;4965563;28;20262;-65
2022/12/01 11:39:22;;;;;;;22.77;10.97;;;;;;;5.81;69.83;101335.69;4969485;28;20233;-65